sensor_id;sensor_type;location;lat;lon;timestamp;pressure;altitude;pressure_sealevel;temperature;humidity
52591;BME280;38483;42.620;25.394;2024-02-23T00:02:40;96924.75;;;4.16;82.91
52591;BME280;38483;42.620;25.394;2024-02-23T00:06:01;96924.75;;;4.16;82.72
52591;BME280;38483;42.620;25.394;2024-02-23T00:09:23;96929.63;;;4.26;82.59
52591;BME280;38483;42.620;25.394;2024-02-23T00:12:43;96926.84;;;4.35;81.98
52591;BME280;38483;42.620;25.394;2024-02-23T00:16:04;96920.03;;;4.34;82.06
52591;BME280;38483;42.620;25.394;2024-02-23T00:19:25;96921.16;;;4.23;83.70
52591;BME280;38483;42.620;25.394;2024-02-23T00:22:46;96925.38;;;4.25;83.23
52591;BME280;38483;42.620;25.394;2024-02-23T00:26:06;96926.03;;;4.33;83.24
52591;BME280;38483;42.620;25.394;2024-02-23T00:29:28;96921.78;;;4.32;82.63
52591;BME280;38483;42.620;25.394;2024-02-23T00:32:50;96916.56;;;4.37;82.45
52591;BME280;38483;42.620;25.394;2024-02-23T00:36:11;96913.00;;;4.42;82.05
52591;BME280;38483;42.620;25.394;2024-02-23T00:39:32;96911.25;;;4.44;82.33
52591;BME280;38483;42.620;25.394;2024-02-23T00:42:52;96910.34;;;4.45;81.71
52591;BME280;38483;42.620;25.394;2024-02-23T00:46:13;96907.59;;;4.54;82.21
52591;BME280;38483;42.620;25.394;2024-02-23T00:49:34;96896.16;;;4.66;81.00
52591;BME280;38483;42.620;25.394;2024-02-23T00:52:55;96910.03;;;4.59;81.77
52591;BME280;38483;42.620;25.394;2024-02-23T00:56:15;96906.72;;;4.55;81.71
52591;BME280;38483;42.620;25.394;2024-02-23T00:59:36;96906.47;;;4.64;82.54
52591;BME280;38483;42.620;25.394;2024-02-23T01:02:57;96896.91;;;4.71;82.41
52591;BME280;38483;42.620;25.394;2024-02-23T01:06:17;96893.97;;;4.52;82.88
52591;BME280;38483;42.620;25.394;2024-02-23T01:09:38;96886.72;;;4.34;84.56
52591;BME280;38483;42.620;25.394;2024-02-23T01:12:59;96892.72;;;4.33;85.49
52591;BME280;38483;42.620;25.394;2024-02-23T01:16:19;96882.59;;;4.27;86.16
52591;BME280;38483;42.620;25.394;2024-02-23T01:19:40;96880.03;;;4.27;85.82
52591;BME280;38483;42.620;25.394;2024-02-23T01:23:01;96875.41;;;4.41;85.62
52591;BME280;38483;42.620;25.394;2024-02-23T01:26:21;96877.72;;;4.53;85.00
52591;BME280;38483;42.620;25.394;2024-02-23T01:29:42;96872.81;;;4.76;83.64
52591;BME280;38483;42.620;25.394;2024-02-23T01:33:03;96859.97;;;4.78;83.59
52591;BME280;38483;42.620;25.394;2024-02-23T01:36:23;96867.53;;;4.82;82.78
52591;BME280;38483;42.620;25.394;2024-02-23T01:39:44;96865.34;;;4.69;82.92
52591;BME280;38483;42.620;25.394;2024-02-23T01:43:05;96870.50;;;4.67;83.04
52591;BME280;38483;42.620;25.394;2024-02-23T01:46:25;96871.47;;;4.63;82.72
52591;BME280;38483;42.620;25.394;2024-02-23T01:49:46;96861.00;;;4.37;82.85
52591;BME280;38483;42.620;25.394;2024-02-23T01:53:08;96859.69;;;4.21;83.78
52591;BME280;38483;42.620;25.394;2024-02-23T01:56:29;96866.34;;;3.93;85.49
52591;BME280;38483;42.620;25.394;2024-02-23T01:59:50;96854.97;;;4.04;86.37
52591;BME280;38483;42.620;25.394;2024-02-23T02:03:14;96861.34;;;4.24;85.32
52591;BME280;38483;42.620;25.394;2024-02-23T02:06:35;96860.19;;;4.35;84.33
52591;BME280;38483;42.620;25.394;2024-02-23T02:09:55;96861.94;;;4.33;83.96
52591;BME280;38483;42.620;25.394;2024-02-23T02:13:16;96865.53;;;3.91;86.34
52591;BME280;38483;42.620;25.394;2024-02-23T02:16:37;96856.38;;;3.81;89.59
52591;BME280;38483;42.620;25.394;2024-02-23T02:20:01;96859.56;;;3.90;89.41
52591;BME280;38483;42.620;25.394;2024-02-23T02:23:21;96856.28;;;3.84;89.45
52591;BME280;38483;42.620;25.394;2024-02-23T02:26:42;96856.81;;;3.99;88.48
52591;BME280;38483;42.620;25.394;2024-02-23T02:30:02;96865.50;;;4.28;86.61
52591;BME280;38483;42.620;25.394;2024-02-23T02:33:23;96860.63;;;4.17;84.94
52591;BME280;38483;42.620;25.394;2024-02-23T02:36:44;96861.38;;;3.85;86.05
52591;BME280;38483;42.620;25.394;2024-02-23T02:40:04;96858.31;;;3.70;87.21
52591;BME280;38483;42.620;25.394;2024-02-23T02:43:25;96862.44;;;3.75;87.13
52591;BME280;38483;42.620;25.394;2024-02-23T02:46:46;96867.00;;;3.63;87.22
52591;BME280;38483;42.620;25.394;2024-02-23T02:50:07;96867.81;;;3.65;87.33
52591;BME280;38483;42.620;25.394;2024-02-23T02:53:27;96855.84;;;3.65;87.10
52591;BME280;38483;42.620;25.394;2024-02-23T02:56:48;96862.94;;;3.54;87.70
52591;BME280;38483;42.620;25.394;2024-02-23T03:00:09;96879.53;;;3.35;88.26
52591;BME280;38483;42.620;25.394;2024-02-23T03:03:31;96860.22;;;3.62;87.55
52591;BME280;38483;42.620;25.394;2024-02-23T03:06:52;96856.38;;;3.81;86.57
52591;BME280;38483;42.620;25.394;2024-02-23T03:10:13;96845.50;;;3.70;85.33
52591;BME280;38483;42.620;25.394;2024-02-23T03:13:34;96855.59;;;3.38;86.74
52591;BME280;38483;42.620;25.394;2024-02-23T03:16:54;96859.00;;;3.38;87.50
52591;BME280;38483;42.620;25.394;2024-02-23T03:20:15;96856.81;;;3.20;88.34
52591;BME280;38483;42.620;25.394;2024-02-23T03:23:36;96859.81;;;2.97;90.42
52591;BME280;38483;42.620;25.394;2024-02-23T03:26:56;96865.75;;;3.01;91.71
52591;BME280;38483;42.620;25.394;2024-02-23T03:30:17;96858.97;;;2.98;92.27
52591;BME280;38483;42.620;25.394;2024-02-23T03:33:37;96850.31;;;3.04;92.70
52591;BME280;38483;42.620;25.394;2024-02-23T03:36:58;96841.50;;;3.18;91.92
52591;BME280;38483;42.620;25.394;2024-02-23T03:40:19;96843.13;;;3.22;91.89
52591;BME280;38483;42.620;25.394;2024-02-23T03:43:39;96842.28;;;3.22;91.80
52591;BME280;38483;42.620;25.394;2024-02-23T03:47:00;96844.78;;;3.25;92.04
52591;BME280;38483;42.620;25.394;2024-02-23T03:50:21;96843.84;;;3.29;92.13
52591;BME280;38483;42.620;25.394;2024-02-23T03:53:41;96844.53;;;3.37;91.93
52591;BME280;38483;42.620;25.394;2024-02-23T03:57:02;96843.41;;;3.49;90.53
52591;BME280;38483;42.620;25.394;2024-02-23T04:00:23;96839.59;;;3.68;89.05
52591;BME280;38483;42.620;25.394;2024-02-23T04:03:43;96848.25;;;3.61;88.88
52591;BME280;38483;42.620;25.394;2024-02-23T04:07:04;96843.09;;;3.64;88.65
52591;BME280;38483;42.620;25.394;2024-02-23T04:10:25;96823.16;;;3.40;89.04
52591;BME280;38483;42.620;25.394;2024-02-23T04:13:46;96846.72;;;3.54;88.07
52591;BME280;38483;42.620;25.394;2024-02-23T04:17:06;96845.13;;;3.50;87.74
52591;BME280;38483;42.620;25.394;2024-02-23T04:20:27;96840.13;;;3.44;88.13
52591;BME280;38483;42.620;25.394;2024-02-23T04:22:54;96831.78;;;3.36;88.69
52591;BME280;38483;42.620;25.394;2024-02-23T04:25:21;96828.31;;;3.37;88.93
52591;BME280;38483;42.620;25.394;2024-02-23T04:27:48;96825.72;;;3.38;89.15
52591;BME280;38483;42.620;25.394;2024-02-23T04:30:15;96828.91;;;3.49;89.05
52591;BME280;38483;42.620;25.394;2024-02-23T04:32:42;96837.22;;;3.59;87.87
52591;BME280;38483;42.620;25.394;2024-02-23T04:35:11;96829.88;;;3.44;87.83
52591;BME280;38483;42.620;25.394;2024-02-23T04:37:38;96817.50;;;3.25;88.16
52591;BME280;38483;42.620;25.394;2024-02-23T04:40:06;96840.44;;;3.28;88.37
52591;BME280;38483;42.620;25.394;2024-02-23T04:42:33;96820.16;;;3.19;88.33
52591;BME280;38483;42.620;25.394;2024-02-23T04:45:00;96842.16;;;3.28;87.40
52591;BME280;38483;42.620;25.394;2024-02-23T04:47:29;96847.38;;;3.22;86.88
52591;BME280;38483;42.620;25.394;2024-02-23T04:49:56;96838.66;;;2.89;87.93
52591;BME280;38483;42.620;25.394;2024-02-23T04:52:24;96849.00;;;2.83;88.57
52591;BME280;38483;42.620;25.394;2024-02-23T04:54:51;96842.91;;;2.90;89.10
52591;BME280;38483;42.620;25.394;2024-02-23T04:57:18;96851.25;;;3.00;89.25
52591;BME280;38483;42.620;25.394;2024-02-23T04:59:45;96850.16;;;3.11;88.30
52591;BME280;38483;42.620;25.394;2024-02-23T05:02:12;96848.69;;;3.00;88.29
52591;BME280;38483;42.620;25.394;2024-02-23T05:04:40;96841.22;;;2.89;88.29
52591;BME280;38483;42.620;25.394;2024-02-23T05:07:07;96839.59;;;2.85;88.58
52591;BME280;38483;42.620;25.394;2024-02-23T05:09:34;96841.41;;;2.79;89.47
52591;BME280;38483;42.620;25.394;2024-02-23T05:12:02;96848.31;;;2.75;90.71
52591;BME280;38483;42.620;25.394;2024-02-23T05:14:29;96848.06;;;2.87;90.40
52591;BME280;38483;42.620;25.394;2024-02-23T05:16:56;96839.75;;;2.76;90.67
52591;BME280;38483;42.620;25.394;2024-02-23T05:19:23;96847.97;;;2.93;91.00
52591;BME280;38483;42.620;25.394;2024-02-23T05:21:50;96853.16;;;2.90;90.89
52591;BME280;38483;42.620;25.394;2024-02-23T05:24:17;96851.09;;;3.09;90.11
52591;BME280;38483;42.620;25.394;2024-02-23T05:26:44;96859.91;;;2.94;90.33
52591;BME280;38483;42.620;25.394;2024-02-23T05:29:11;96849.75;;;2.90;91.13
52591;BME280;38483;42.620;25.394;2024-02-23T05:31:49;96852.31;;;2.90;90.76
52591;BME280;38483;42.620;25.394;2024-02-23T05:34:16;96787.75;;;2.33;92.39
52591;BME280;38483;42.620;25.394;2024-02-23T05:36:45;96855.88;;;2.81;92.66
52591;BME280;38483;42.620;25.394;2024-02-23T05:39:15;96850.91;;;2.74;93.63
52591;BME280;38483;42.620;25.394;2024-02-23T05:41:42;96854.91;;;2.88;93.97
52591;BME280;38483;42.620;25.394;2024-02-23T05:44:10;96846.91;;;3.03;93.25
52591;BME280;38483;42.620;25.394;2024-02-23T05:46:37;96866.91;;;3.27;92.35
52591;BME280;38483;42.620;25.394;2024-02-23T05:49:04;96867.16;;;3.14;92.85
52591;BME280;38483;42.620;25.394;2024-02-23T05:51:31;96867.72;;;3.29;92.59
52591;BME280;38483;42.620;25.394;2024-02-23T05:53:58;96871.78;;;3.40;91.98
52591;BME280;38483;42.620;25.394;2024-02-23T05:56:25;96870.88;;;3.41;91.51
52591;BME280;38483;42.620;25.394;2024-02-23T05:58:52;96875.66;;;3.57;91.54
52591;BME280;38483;42.620;25.394;2024-02-23T06:01:20;96870.50;;;3.59;90.50
52591;BME280;38483;42.620;25.394;2024-02-23T06:03:47;96868.59;;;3.68;90.27
52591;BME280;38483;42.620;25.394;2024-02-23T06:06:14;96869.91;;;3.86;89.87
52591;BME280;38483;42.620;25.394;2024-02-23T06:08:41;96870.16;;;4.12;88.29
52591;BME280;38483;42.620;25.394;2024-02-23T06:11:12;96870.97;;;4.14;87.84
52591;BME280;38483;42.620;25.394;2024-02-23T06:13:39;96881.69;;;4.30;87.41
52591;BME280;38483;42.620;25.394;2024-02-23T06:16:10;96893.34;;;4.43;85.66
52591;BME280;38483;42.620;25.394;2024-02-23T06:18:41;96887.44;;;4.39;86.65
52591;BME280;38483;42.620;25.394;2024-02-23T06:21:14;96901.50;;;4.58;86.22
52591;BME280;38483;42.620;25.394;2024-02-23T06:23:41;96888.38;;;4.37;86.27
52591;BME280;38483;42.620;25.394;2024-02-23T06:26:09;96899.28;;;4.43;87.45
52591;BME280;38483;42.620;25.394;2024-02-23T06:28:37;96890.94;;;4.35;87.59
52591;BME280;38483;42.620;25.394;2024-02-23T06:31:05;96893.41;;;4.40;88.61
52591;BME280;38483;42.620;25.394;2024-02-23T06:33:32;96895.13;;;4.39;89.38
52591;BME280;38483;42.620;25.394;2024-02-23T06:36:00;96893.06;;;4.55;88.94
52591;BME280;38483;42.620;25.394;2024-02-23T06:38:27;96882.31;;;4.73;88.07
52591;BME280;38483;42.620;25.394;2024-02-23T06:40:56;96876.53;;;4.99;86.99
52591;BME280;38483;42.620;25.394;2024-02-23T06:43:23;96859.03;;;5.13;85.30
52591;BME280;38483;42.620;25.394;2024-02-23T06:45:50;96891.38;;;5.49;84.43
52591;BME280;38483;42.620;25.394;2024-02-23T06:48:18;96895.81;;;5.44;83.94
52591;BME280;38483;42.620;25.394;2024-02-23T06:50:45;96895.53;;;5.53;83.70
52591;BME280;38483;42.620;25.394;2024-02-23T06:53:12;96890.75;;;5.70;85.42
52591;BME280;38483;42.620;25.394;2024-02-23T06:55:39;96889.19;;;5.95;83.29
52591;BME280;38483;42.620;25.394;2024-02-23T06:58:06;96889.88;;;6.00;82.17
52591;BME280;38483;42.620;25.394;2024-02-23T07:00:34;96891.09;;;6.16;82.39
52591;BME280;38483;42.620;25.394;2024-02-23T07:03:02;96889.56;;;6.37;83.33
52591;BME280;38483;42.620;25.394;2024-02-23T07:05:31;96896.13;;;6.47;82.65
52591;BME280;38483;42.620;25.394;2024-02-23T07:07:59;96881.72;;;6.41;81.19
52591;BME280;38483;42.620;25.394;2024-02-23T07:10:26;96887.81;;;6.65;81.36
52591;BME280;38483;42.620;25.394;2024-02-23T07:12:53;96885.91;;;6.96;80.54
52591;BME280;38483;42.620;25.394;2024-02-23T07:15:21;96882.34;;;6.99;79.39
52591;BME280;38483;42.620;25.394;2024-02-23T07:17:48;96888.47;;;6.96;80.73
52591;BME280;38483;42.620;25.394;2024-02-23T07:20:15;96885.28;;;7.14;80.40
52591;BME280;38483;42.620;25.394;2024-02-23T07:22:44;96881.34;;;7.27;80.16
52591;BME280;38483;42.620;25.394;2024-02-23T07:25:12;96886.63;;;7.24;80.00
52591;BME280;38483;42.620;25.394;2024-02-23T07:27:39;96884.19;;;7.20;79.56
52591;BME280;38483;42.620;25.394;2024-02-23T07:30:06;96888.69;;;7.38;81.05
52591;BME280;38483;42.620;25.394;2024-02-23T07:32:33;96898.56;;;7.50;79.82
52591;BME280;38483;42.620;25.394;2024-02-23T07:35:01;96887.22;;;7.79;78.48
52591;BME280;38483;42.620;25.394;2024-02-23T07:37:30;96885.13;;;7.88;78.77
52591;BME280;38483;42.620;25.394;2024-02-23T07:39:57;96873.91;;;7.89;79.62
52591;BME280;38483;42.620;25.394;2024-02-23T07:42:24;96872.06;;;7.93;79.27
52591;BME280;38483;42.620;25.394;2024-02-23T07:44:51;96875.03;;;8.05;79.63
52591;BME280;38483;42.620;25.394;2024-02-23T07:47:18;96877.50;;;8.30;78.93
52591;BME280;38483;42.620;25.394;2024-02-23T07:49:45;96875.66;;;8.34;79.13
52591;BME280;38483;42.620;25.394;2024-02-23T07:52:12;96872.34;;;8.30;78.54
52591;BME280;38483;42.620;25.394;2024-02-23T07:54:39;96825.50;;;7.97;79.63
52591;BME280;38483;42.620;25.394;2024-02-23T07:57:06;96878.56;;;8.46;79.91
52591;BME280;38483;42.620;25.394;2024-02-23T07:59:34;96868.84;;;8.53;79.48
52591;BME280;38483;42.620;25.394;2024-02-23T08:02:02;96872.75;;;8.63;79.47
52591;BME280;38483;42.620;25.394;2024-02-23T08:04:29;96870.69;;;8.91;78.57
52591;BME280;38483;42.620;25.394;2024-02-23T08:06:56;96869.66;;;8.95;78.02
52591;BME280;38483;42.620;25.394;2024-02-23T08:09:23;96862.88;;;9.13;77.14
52591;BME280;38483;42.620;25.394;2024-02-23T08:11:50;96867.31;;;9.29;75.85
52591;BME280;38483;42.620;25.394;2024-02-23T08:14:18;96868.88;;;9.33;75.43
52591;BME280;38483;42.620;25.394;2024-02-23T08:16:45;96865.38;;;9.34;75.58
52591;BME280;38483;42.620;25.394;2024-02-23T08:19:12;96867.88;;;9.36;75.89
52591;BME280;38483;42.620;25.394;2024-02-23T08:21:39;96860.63;;;9.25;76.00
52591;BME280;38483;42.620;25.394;2024-02-23T08:24:07;96861.75;;;9.38;75.72
52591;BME280;38483;42.620;25.394;2024-02-23T08:26:34;96866.50;;;9.47;76.03
52591;BME280;38483;42.620;25.394;2024-02-23T08:29:02;96862.63;;;9.57;75.72
52591;BME280;38483;42.620;25.394;2024-02-23T08:31:29;96847.47;;;9.68;75.31
52591;BME280;38483;42.620;25.394;2024-02-23T08:33:56;96869.25;;;10.00;74.65
52591;BME280;38483;42.620;25.394;2024-02-23T08:36:24;96861.50;;;10.19;73.12
52591;BME280;38483;42.620;25.394;2024-02-23T08:38:51;96853.19;;;10.12;73.16
52591;BME280;38483;42.620;25.394;2024-02-23T08:41:18;96851.44;;;10.13;73.19
52591;BME280;38483;42.620;25.394;2024-02-23T08:43:45;96860.78;;;10.34;72.88
52591;BME280;38483;42.620;25.394;2024-02-23T08:46:12;96859.00;;;10.53;72.59
52591;BME280;38483;42.620;25.394;2024-02-23T08:48:39;96853.91;;;10.69;71.78
52591;BME280;38483;42.620;25.394;2024-02-23T08:51:07;96840.66;;;10.75;70.96
52591;BME280;38483;42.620;25.394;2024-02-23T08:53:34;96843.63;;;11.01;71.26
52591;BME280;38483;42.620;25.394;2024-02-23T08:56:01;96842.91;;;11.15;70.17
52591;BME280;38483;42.620;25.394;2024-02-23T08:58:28;96839.25;;;11.19;68.91
52591;BME280;38483;42.620;25.394;2024-02-23T09:00:55;96840.38;;;11.30;68.67
52591;BME280;38483;42.620;25.394;2024-02-23T09:03:23;96858.06;;;11.39;68.45
52591;BME280;38483;42.620;25.394;2024-02-23T09:05:50;96851.81;;;11.59;67.12
52591;BME280;38483;42.620;25.394;2024-02-23T09:08:17;96850.97;;;11.76;64.54
52591;BME280;38483;42.620;25.394;2024-02-23T09:10:44;96835.31;;;11.77;64.15
52591;BME280;38483;42.620;25.394;2024-02-23T09:13:11;96848.53;;;11.88;60.76
52591;BME280;38483;42.620;25.394;2024-02-23T09:15:39;96846.28;;;11.98;59.97
52591;BME280;38483;42.620;25.394;2024-02-23T09:18:06;96852.97;;;12.02;59.15
52591;BME280;38483;42.620;25.394;2024-02-23T09:20:33;96853.16;;;12.14;58.99
52591;BME280;38483;42.620;25.394;2024-02-23T09:23:00;96853.81;;;12.18;58.30
52591;BME280;38483;42.620;25.394;2024-02-23T09:25:27;96854.47;;;12.37;58.83
52591;BME280;38483;42.620;25.394;2024-02-23T09:27:57;96858.06;;;12.35;57.94
52591;BME280;38483;42.620;25.394;2024-02-23T09:30:24;96855.22;;;12.39;57.96
52591;BME280;38483;42.620;25.394;2024-02-23T09:32:51;96847.03;;;12.47;57.72
52591;BME280;38483;42.620;25.394;2024-02-23T09:35:19;96842.28;;;12.53;56.22
52591;BME280;38483;42.620;25.394;2024-02-23T09:37:46;96844.34;;;12.78;56.04
52591;BME280;38483;42.620;25.394;2024-02-23T09:40:14;96832.03;;;12.81;56.07
52591;BME280;38483;42.620;25.394;2024-02-23T09:42:42;96816.34;;;12.83;55.17
52591;BME280;38483;42.620;25.394;2024-02-23T09:45:11;96826.31;;;13.04;55.22
52591;BME280;38483;42.620;25.394;2024-02-23T09:47:39;96820.34;;;13.02;55.60
52591;BME280;38483;42.620;25.394;2024-02-23T09:50:08;96823.94;;;13.16;54.48
52591;BME280;38483;42.620;25.394;2024-02-23T09:52:36;96838.69;;;13.15;54.01
52591;BME280;38483;42.620;25.394;2024-02-23T09:55:03;96834.72;;;13.10;54.02
52591;BME280;38483;42.620;25.394;2024-02-23T09:57:30;96823.31;;;13.26;53.73
52591;BME280;38483;42.620;25.394;2024-02-23T09:59:58;96823.22;;;13.42;53.96
52591;BME280;38483;42.620;25.394;2024-02-23T10:02:25;96816.16;;;13.30;54.50
52591;BME280;38483;42.620;25.394;2024-02-23T10:04:54;96816.72;;;13.35;53.89
52591;BME280;38483;42.620;25.394;2024-02-23T10:07:23;96810.13;;;13.43;54.09
52591;BME280;38483;42.620;25.394;2024-02-23T10:09:53;96820.72;;;13.40;54.03
52591;BME280;38483;42.620;25.394;2024-02-23T10:12:20;96815.59;;;13.53;53.89
52591;BME280;38483;42.620;25.394;2024-02-23T10:14:47;96803.81;;;13.61;53.69
52591;BME280;38483;42.620;25.394;2024-02-23T10:17:14;96803.31;;;13.69;53.23
52591;BME280;38483;42.620;25.394;2024-02-23T10:19:41;96799.22;;;13.79;53.25
52591;BME280;38483;42.620;25.394;2024-02-23T10:22:08;96783.91;;;13.74;52.57
52591;BME280;38483;42.620;25.394;2024-02-23T10:24:36;96792.78;;;13.99;52.88
52591;BME280;38483;42.620;25.394;2024-02-23T10:27:03;96792.97;;;14.22;51.18
52591;BME280;38483;42.620;25.394;2024-02-23T10:29:31;96794.66;;;14.23;50.95
52591;BME280;38483;42.620;25.394;2024-02-23T10:31:58;96790.28;;;14.24;50.65
52591;BME280;38483;42.620;25.394;2024-02-23T10:34:26;96758.25;;;13.95;50.87
52591;BME280;38483;42.620;25.394;2024-02-23T10:36:55;96787.97;;;14.19;50.68
52591;BME280;38483;42.620;25.394;2024-02-23T10:39:24;96786.69;;;14.39;50.24
52591;BME280;38483;42.620;25.394;2024-02-23T10:42:00;96770.25;;;14.24;50.26
52591;BME280;38483;42.620;25.394;2024-02-23T10:44:30;96774.41;;;14.14;50.53
52591;BME280;38483;42.620;25.394;2024-02-23T10:46:58;96768.59;;;14.23;50.44
52591;BME280;38483;42.620;25.394;2024-02-23T10:49:31;96774.34;;;14.42;50.31
52591;BME280;38483;42.620;25.394;2024-02-23T10:51:58;96762.03;;;14.44;49.30
52591;BME280;38483;42.620;25.394;2024-02-23T10:54:26;96759.22;;;14.47;49.18
52591;BME280;38483;42.620;25.394;2024-02-23T10:56:53;96751.53;;;14.58;49.64
52591;BME280;38483;42.620;25.394;2024-02-23T10:59:23;96746.56;;;14.81;48.62
52591;BME280;38483;42.620;25.394;2024-02-23T11:01:54;96759.72;;;14.92;47.80
52591;BME280;38483;42.620;25.394;2024-02-23T11:04:27;96729.03;;;14.70;48.24
52591;BME280;38483;42.620;25.394;2024-02-23T11:06:55;96743.53;;;14.87;48.35
52591;BME280;38483;42.620;25.394;2024-02-23T11:09:26;96733.66;;;14.92;47.87
52591;BME280;38483;42.620;25.394;2024-02-23T11:11:55;96738.44;;;14.98;47.49
52591;BME280;38483;42.620;25.394;2024-02-23T11:17:00;96727.47;;;14.80;47.82
52591;BME280;38483;42.620;25.394;2024-02-23T11:19:35;96721.72;;;15.00;47.34
52591;BME280;38483;42.620;25.394;2024-02-23T11:22:03;96736.13;;;14.93;47.51
52591;BME280;38483;42.620;25.394;2024-02-23T11:24:31;96718.50;;;14.97;47.51
52591;BME280;38483;42.620;25.394;2024-02-23T11:26:59;96732.78;;;15.29;47.29
52591;BME280;38483;42.620;25.394;2024-02-23T11:29:29;96741.78;;;15.00;47.32
52591;BME280;38483;42.620;25.394;2024-02-23T11:31:57;96736.16;;;15.06;46.71
52591;BME280;38483;42.620;25.394;2024-02-23T11:34:28;96712.78;;;14.79;46.98
52591;BME280;38483;42.620;25.394;2024-02-23T11:36:55;96719.53;;;15.07;46.74
52591;BME280;38483;42.620;25.394;2024-02-23T11:39:23;96725.91;;;15.15;46.41
52591;BME280;38483;42.620;25.394;2024-02-23T11:41:50;96715.47;;;15.28;46.38
52591;BME280;38483;42.620;25.394;2024-02-23T11:44:18;96700.84;;;15.13;46.56
52591;BME280;38483;42.620;25.394;2024-02-23T11:46:46;96721.63;;;15.27;46.48
52591;BME280;38483;42.620;25.394;2024-02-23T11:49:14;96704.44;;;15.12;46.25
52591;BME280;38483;42.620;25.394;2024-02-23T11:51:43;96712.53;;;15.32;45.68
52591;BME280;38483;42.620;25.394;2024-02-23T11:54:11;96710.66;;;15.34;45.80
52591;BME280;38483;42.620;25.394;2024-02-23T11:56:40;96711.88;;;15.54;45.11
52591;BME280;38483;42.620;25.394;2024-02-23T11:59:08;96711.59;;;15.46;44.71
52591;BME280;38483;42.620;25.394;2024-02-23T12:01:36;96708.97;;;15.46;44.63
52591;BME280;38483;42.620;25.394;2024-02-23T12:04:03;96708.53;;;15.52;44.19
52591;BME280;38483;42.620;25.394;2024-02-23T12:06:30;96642.41;;;15.28;44.22
52591;BME280;38483;42.620;25.394;2024-02-23T12:09:00;96702.66;;;15.74;44.32
52591;BME280;38483;42.620;25.394;2024-02-23T12:11:27;96702.25;;;15.67;44.21
52591;BME280;38483;42.620;25.394;2024-02-23T12:13:55;96701.38;;;15.79;43.82
52591;BME280;38483;42.620;25.394;2024-02-23T12:16:26;96699.88;;;15.88;43.18
52591;BME280;38483;42.620;25.394;2024-02-23T12:18:54;96690.28;;;15.88;43.11
52591;BME280;38483;42.620;25.394;2024-02-23T12:21:23;96696.50;;;15.98;42.71
52591;BME280;38483;42.620;25.394;2024-02-23T12:23:51;96690.09;;;16.02;42.49
52591;BME280;38483;42.620;25.394;2024-02-23T12:26:18;96688.56;;;15.76;43.04
52591;BME280;38483;42.620;25.394;2024-02-23T12:28:46;96694.78;;;15.86;42.85
52591;BME280;38483;42.620;25.394;2024-02-23T12:31:14;96680.22;;;15.95;42.21
52591;BME280;38483;42.620;25.394;2024-02-23T12:33:41;96676.16;;;15.91;42.45
52591;BME280;38483;42.620;25.394;2024-02-23T12:36:10;96676.16;;;15.91;42.37
52591;BME280;38483;42.620;25.394;2024-02-23T12:38:37;96666.81;;;15.99;42.27
52591;BME280;38483;42.620;25.394;2024-02-23T12:41:04;96669.22;;;16.02;42.57
52591;BME280;38483;42.620;25.394;2024-02-23T12:43:32;96670.94;;;15.67;43.02
52591;BME280;38483;42.620;25.394;2024-02-23T12:45:59;96649.75;;;15.83;43.00
52591;BME280;38483;42.620;25.394;2024-02-23T12:48:28;96665.94;;;16.11;42.01
52591;BME280;38483;42.620;25.394;2024-02-23T12:50:56;96652.75;;;15.89;42.37
52591;BME280;38483;42.620;25.394;2024-02-23T12:53:37;96660.78;;;16.10;41.98
52591;BME280;38483;42.620;25.394;2024-02-23T12:56:14;96662.81;;;16.06;41.99
52591;BME280;38483;42.620;25.394;2024-02-23T12:58:44;96653.59;;;15.90;42.29
52591;BME280;38483;42.620;25.394;2024-02-23T13:01:11;96651.84;;;16.01;41.94
52591;BME280;38483;42.620;25.394;2024-02-23T13:03:39;96668.81;;;16.19;41.24
52591;BME280;38483;42.620;25.394;2024-02-23T13:06:09;96661.44;;;16.24;41.72
52591;BME280;38483;42.620;25.394;2024-02-23T13:08:36;96661.44;;;16.24;42.16
52591;BME280;38483;42.620;25.394;2024-02-23T13:11:06;96665.16;;;16.33;41.73
52591;BME280;38483;42.620;25.394;2024-02-23T13:13:33;96651.97;;;16.35;41.36
52591;BME280;38483;42.620;25.394;2024-02-23T13:16:01;96649.47;;;16.33;41.46
52591;BME280;38483;42.620;25.394;2024-02-23T13:18:28;96658.56;;;16.51;41.41
52591;BME280;38483;42.620;25.394;2024-02-23T13:20:55;96649.28;;;16.47;42.09
52591;BME280;38483;42.620;25.394;2024-02-23T13:23:22;96650.88;;;16.50;41.36
52591;BME280;38483;42.620;25.394;2024-02-23T13:25:49;96649.56;;;16.55;40.58
52591;BME280;38483;42.620;25.394;2024-02-23T13:28:16;96627.47;;;16.24;41.41
52591;BME280;38483;42.620;25.394;2024-02-23T13:30:44;96642.72;;;16.42;40.94
52591;BME280;38483;42.620;25.394;2024-02-23T13:33:11;96645.81;;;16.47;40.79
52591;BME280;38483;42.620;25.394;2024-02-23T13:35:38;96635.06;;;16.16;41.11
52591;BME280;38483;42.620;25.394;2024-02-23T13:38:07;96631.06;;;16.23;41.33
52591;BME280;38483;42.620;25.394;2024-02-23T13:40:34;96629.97;;;16.15;41.49
52591;BME280;38483;42.620;25.394;2024-02-23T13:43:01;96634.22;;;16.16;41.38
52591;BME280;38483;42.620;25.394;2024-02-23T13:45:28;96624.28;;;16.21;40.70
52591;BME280;38483;42.620;25.394;2024-02-23T13:48:00;96631.53;;;16.28;40.59
52591;BME280;38483;42.620;25.394;2024-02-23T13:50:28;96618.66;;;16.14;41.33
52591;BME280;38483;42.620;25.394;2024-02-23T13:52:57;96624.66;;;16.27;41.01
52591;BME280;38483;42.620;25.394;2024-02-23T13:55:25;96631.97;;;16.22;41.04
52591;BME280;38483;42.620;25.394;2024-02-23T13:57:52;96630.78;;;16.15;41.26
52591;BME280;38483;42.620;25.394;2024-02-23T14:00:20;96637.97;;;16.01;41.59
52591;BME280;38483;42.620;25.394;2024-02-23T14:02:47;96634.97;;;15.94;41.73
52591;BME280;38483;42.620;25.394;2024-02-23T14:05:15;96621.41;;;15.89;42.16
52591;BME280;38483;42.620;25.394;2024-02-23T14:07:45;96623.97;;;16.02;42.30
52591;BME280;38483;42.620;25.394;2024-02-23T14:10:12;96623.22;;;16.23;41.45